Santa Cruz, California
Current Conditions -  °F | °C
As of 9:53 AM on Friday 31 Oct 2014 (Local Time) from KWVI Reporting Station
Overcast Overcast  
Wind Chill: 65°   Ceiling: 4700
Heat Index: 65°   Visibility: 10mi
Dew Point: 57°   Wind: 6mph
Humidity: 75%   Direction: 180°S
Pressure: 29.92"   Gusts: NA
Location:  36.97°N, 122.03°W
Report Text: KWVI 311653Z AUTO 18005KT 10SM SCT016 BKN047 OVC055 18/14 A2992 RMK AO2 SLP130 T01830139
Loading
Personal Weather Stations






























Interactive Weather Map
Tropical Storm Tracking
New forecast layout! Learn more

10-Day Weather Forecast

Advertisements
Track Severe Weather on mobile